Time;durP1;ratioP1;P1;durP2;ratioP2;P2;SDS_P1;SDS_P2;PMS_P1;PMS_P2;Temp;Humidity;BMP_temperature;BMP_pressure;BME280_temperature;BME280_humidity;BME280_pressure;Samples;Min_cycle;Max_cycle;Signal;HPM_P1;HPM_P2
2024/01/11 00:01:26;;;;;;;2.95;1.98;;;20.10;49.00;;;;;;5039731;28;20384;-66
2024/01/11 00:03:52;;;;;;;3.17;2.10;;;20.10;49.00;;;;;;5037249;28;20032;-65
2024/01/11 00:06:17;;;;;;;2.70;1.90;;;20.10;49.00;;;;;;5040445;28;20032;-65
2024/01/11 00:08:43;;;;;;;2.97;1.85;;;20.10;49.00;;;;;;5039666;28;20705;-65
2024/01/11 00:11:09;;;;;;;2.55;2.00;;;20.10;49.10;;;;;;5041108;28;20021;-65
2024/01/11 00:13:34;;;;;;;2.78;1.90;;;20.00;49.00;;;;;;5037237;28;20029;-65
2024/01/11 00:16:00;;;;;;;2.88;2.03;;;20.00;49.00;;;;;;5040189;28;20037;-65
2024/01/11 00:18:25;;;;;;;2.60;1.77;;;20.00;49.00;;;;;;5037009;28;20037;-65
2024/01/11 00:20:51;;;;;;;2.78;1.90;;;20.00;49.00;;;;;;5040344;28;20061;-65
2024/01/11 00:23:17;;;;;;;2.85;1.90;;;20.00;49.00;;;;;;5040192;28;20098;-65
2024/01/11 00:25:43;;;;;;;3.05;2.17;;;20.00;49.00;;;;;;5038212;28;20121;-65
2024/01/11 00:28:08;;;;;;;2.70;1.83;;;20.00;49.00;;;;;;5037324;28;20030;-65
2024/01/11 00:30:34;;;;;;;2.83;2.00;;;20.00;49.00;;;;;;5037162;28;20031;-65
2024/01/11 00:32:59;;;;;;;3.30;1.90;;;20.00;49.10;;;;;;5039578;28;20072;-65
2024/01/11 00:35:25;;;;;;;2.80;1.90;;;20.00;49.10;;;;;;5036847;28;20429;-66
2024/01/11 00:37:51;;;;;;;2.88;1.85;;;19.90;49.00;;;;;;5037863;28;20079;-65
2024/01/11 00:40:16;;;;;;;2.90;1.80;;;19.90;49.00;;;;;;5038687;28;20022;-65
2024/01/11 00:42:42;;;;;;;2.53;1.70;;;19.90;49.00;;;;;;5041003;28;20064;-65
2024/01/11 00:45:08;;;;;;;3.05;2.08;;;19.90;49.00;;;;;;5040394;28;20044;-66
2024/01/11 00:47:33;;;;;;;2.90;2.00;;;19.90;49.10;;;;;;5036901;28;20022;-65
2024/01/11 00:49:59;;;;;;;2.90;1.90;;;19.90;49.10;;;;;;5036089;28;20025;-65
2024/01/11 00:52:25;;;;;;;2.60;1.83;;;19.90;49.10;;;;;;5039586;28;20111;-67
2024/01/11 00:54:50;;;;;;;2.80;2.00;;;19.80;49.00;;;;;;5036249;28;20041;-64
2024/01/11 00:57:16;;;;;;;2.40;1.77;;;19.80;49.00;;;;;;5036362;28;20025;-64
2024/01/11 00:59:41;;;;;;;2.47;1.75;;;19.80;49.00;;;;;;5038573;28;20033;-64
2024/01/11 01:02:07;;;;;;;2.75;1.92;;;19.80;49.00;;;;;;5040583;28;20033;-64
2024/01/11 01:04:33;;;;;;;2.85;2.00;;;19.80;49.00;;;;;;5036655;28;20034;-67
2024/01/11 01:06:58;;;;;;;2.78;1.80;;;19.80;49.00;;;;;;5037997;28;20025;-67
2024/01/11 01:09:24;;;;;;;2.85;1.90;;;19.80;49.00;;;;;;5038644;28;20512;-67
2024/01/11 01:11:50;;;;;;;2.75;1.88;;;19.80;49.00;;;;;;5037500;28;20076;-67
2024/01/11 01:14:15;;;;;;;2.83;2.05;;;19.80;49.00;;;;;;5038444;28;20024;-67
2024/01/11 01:16:41;;;;;;;2.42;1.70;;;19.70;49.00;;;;;;5039924;28;20029;-67
2024/01/11 01:19:07;;;;;;;2.83;1.73;;;19.70;49.00;;;;;;5038061;28;20056;-67
2024/01/11 01:21:33;;;;;;;2.50;1.90;;;19.70;49.00;;;;;;5038646;28;20449;-67
2024/01/11 01:23:58;;;;;;;2.53;1.80;;;19.70;49.00;;;;;;5037645;28;20107;-67
2024/01/11 01:26:24;;;;;;;3.40;1.90;;;19.70;49.00;;;;;;5039281;28;20385;-67
2024/01/11 01:28:49;;;;;;;2.65;1.80;;;19.70;49.50;;;;;;5041054;28;20021;-67
2024/01/11 01:31:15;;;;;;;2.78;1.90;;;19.70;49.00;;;;;;5035733;28;20110;-67
2024/01/11 01:33:41;;;;;;;2.90;2.00;;;19.70;49.00;;;;;;5035371;28;20032;-66
2024/01/11 01:36:12;;;;;;;2.85;2.05;;;19.60;49.00;;;;;;5038729;28;20040;-67
2024/01/11 01:38:38;;;;;;;2.80;1.75;;;19.60;49.00;;;;;;5038347;28;20091;-67
2024/01/11 01:41:04;;;;;;;2.28;1.70;;;19.70;49.10;;;;;;5033342;28;20482;-67
2024/01/11 01:43:29;;;;;;;2.90;2.13;;;19.70;49.10;;;;;;5037740;28;20230;-67
2024/01/11 01:45:55;;;;;;;2.72;1.90;;;19.60;49.00;;;;;;5042512;28;20025;-67
2024/01/11 01:48:21;;;;;;;2.92;1.80;;;19.70;49.10;;;;;;5035792;28;20032;-67
2024/01/11 01:50:50;;;;;;;2.97;1.92;;;19.60;49.10;;;;;;5034321;28;20056;-67
2024/01/11 01:53:22;;;;;;;2.95;2.03;;;19.60;49.00;;;;;;5037894;28;20029;-67
2024/01/11 01:55:48;;;;;;;2.58;1.83;;;19.60;49.10;;;;;;5035889;28;20036;-67
2024/01/11 01:58:15;;;;;;;2.55;1.77;;;19.60;49.10;;;;;;5036417;28;20487;-67
2024/01/11 02:00:41;;;;;;;2.60;1.92;;;19.60;49.10;;;;;;5038411;28;20470;-67
2024/01/11 02:03:09;;;;;;;2.58;1.98;;;19.60;49.10;;;;;;5038186;28;20104;-67
2024/01/11 02:05:35;;;;;;;2.88;1.83;;;19.60;49.10;;;;;;5035484;28;20143;-67
2024/01/11 02:08:08;;;;;;;2.53;1.90;;;19.50;49.00;;;;;;5035484;28;20030;-67
2024/01/11 02:10:35;;;;;;;2.42;1.75;;;19.50;49.00;;;;;;5037903;28;20111;-67
2024/01/11 02:13:01;;;;;;;2.80;1.90;;;19.50;49.60;;;;;;5038766;28;20373;-64
2024/01/11 02:15:26;;;;;;;2.97;1.92;;;19.50;49.60;;;;;;5037674;28;20026;-65
2024/01/11 02:17:52;;;;;;;2.70;1.80;;;19.50;49.10;;;;;;5036661;28;20040;-65
2024/01/11 02:20:18;;;;;;;2.20;1.80;;;19.50;49.10;;;;;;5035164;28;20038;-64
2024/01/11 02:22:50;;;;;;;2.47;1.70;;;19.50;49.10;;;;;;5035083;28;20052;-66
2024/01/11 02:25:15;;;;;;;2.92;1.98;;;19.50;49.10;;;;;;5036012;28;20025;-65
2024/01/11 02:27:50;;;;;;;2.88;1.77;;;19.50;49.10;;;;;;5034819;28;20496;-65
2024/01/11 02:30:17;;;;;;;2.60;1.70;;;19.50;49.60;;;;;;5038486;28;20022;-64
2024/01/11 02:32:47;;;;;;;2.85;1.83;;;19.50;49.10;;;;;;5036043;28;20497;-65
2024/01/11 02:35:15;;;;;;;2.30;1.70;;;19.50;49.10;;;;;;5036176;28;20067;-65
2024/01/11 02:37:40;;;;;;;2.58;1.90;;;19.50;49.10;;;;;;5033301;28;20033;-65
2024/01/11 02:40:08;;;;;;;3.05;2.17;;;19.50;49.10;;;;;;5039545;28;20112;-65
2024/01/11 02:42:34;;;;;;;2.40;1.58;;;19.40;49.10;;;;;;5036596;28;20088;-65
2024/01/11 02:45:00;;;;;;;2.67;2.00;;;19.40;49.10;;;;;;5034538;28;20026;-65
2024/01/11 02:47:25;;;;;;;2.35;1.70;;;19.50;49.70;;;;;;5034380;28;20037;-64
2024/01/11 02:49:51;;;;;;;2.50;1.80;;;19.40;49.10;;;;;;5034853;28;20121;-65
2024/01/11 02:52:17;;;;;;;2.65;1.90;;;19.40;49.10;;;;;;5039551;28;20359;-65
2024/01/11 02:54:43;;;;;;;2.83;1.95;;;19.40;49.20;;;;;;5038706;28;20065;-67
2024/01/11 02:57:08;;;;;;;2.30;1.77;;;19.40;49.20;;;;;;5037978;28;20044;-67
2024/01/11 02:59:34;;;;;;;2.47;1.70;;;19.40;49.20;;;;;;5038178;28;20037;-67
2024/01/11 03:02:00;;;;;;;2.60;1.95;;;19.40;49.20;;;;;;5036308;28;20174;-67
2024/01/11 03:04:26;;;;;;;2.40;1.73;;;19.40;49.20;;;;;;5037281;28;20331;-66
2024/01/11 03:06:51;;;;;;;3.05;2.08;;;19.40;49.20;;;;;;5042501;28;20021;-67
2024/01/11 03:09:17;;;;;;;2.33;1.80;;;19.40;49.20;;;;;;5038368;28;20021;-67
2024/01/11 03:11:42;;;;;;;2.90;2.00;;;19.40;49.20;;;;;;5042835;28;20079;-67
2024/01/11 03:14:08;;;;;;;2.85;1.90;;;19.30;49.20;;;;;;5039873;28;20520;-64
2024/01/11 03:16:34;;;;;;;2.35;1.80;;;19.40;49.20;;;;;;5041352;28;20040;-65
2024/01/11 03:18:59;;;;;;;2.58;1.88;;;19.40;49.30;;;;;;5040919;28;20438;-65
2024/01/11 03:21:25;;;;;;;2.75;2.00;;;19.40;49.20;;;;;;5039511;28;20038;-65
2024/01/11 03:23:51;;;;;;;2.63;1.75;;;19.30;49.20;;;;;;5041348;28;20029;-65
2024/01/11 03:26:17;;;;;;;3.00;2.00;;;19.40;49.30;;;;;;5042251;28;20025;-64
2024/01/11 03:28:43;;;;;;;2.78;1.90;;;19.30;49.20;;;;;;5038328;28;20495;-65
2024/01/11 03:31:09;;;;;;;2.70;1.73;;;19.30;49.20;;;;;;5042297;28;20033;-65
2024/01/11 03:33:35;;;;;;;2.50;1.90;;;19.30;49.20;;;;;;5041600;28;20099;-65
2024/01/11 03:36:11;;;;;;;3.00;1.98;;;19.30;49.20;;;;;;5037289;28;20456;-65
2024/01/11 03:38:37;;;;;;;2.40;1.83;;;19.30;49.30;;;;;;5040781;28;20029;-65
2024/01/11 03:41:08;;;;;;;2.60;1.95;;;19.30;49.30;;;;;;5040539;28;20021;-65
2024/01/11 03:43:34;;;;;;;2.45;1.77;;;19.30;49.30;;;;;;5041012;28;20386;-65
2024/01/11 03:45:59;;;;;;;2.70;2.10;;;19.30;49.30;;;;;;5040262;28;20029;-65
2024/01/11 03:48:25;;;;;;;2.55;1.98;;;19.30;49.30;;;;;;5040501;28;20012;-65
2024/01/11 03:50:51;;;;;;;3.08;2.10;;;19.30;49.30;;;;;;5037054;28;20426;-65
2024/01/11 03:53:16;;;;;;;2.60;2.00;;;19.30;49.30;;;;;;5039652;28;20037;-65
2024/01/11 03:55:43;;;;;;;2.42;1.60;;;19.30;49.30;;;;;;5038465;28;20121;-65
2024/01/11 03:58:09;;;;;;;2.55;1.88;;;19.30;49.30;;;;;;5038273;28;20056;-65
2024/01/11 04:00:34;;;;;;;2.90;1.90;;;19.30;49.30;;;;;;5038507;28;20492;-66
2024/01/11 04:03:01;;;;;;;3.30;2.20;;;19.30;49.30;;;;;;5037369;28;20029;-67
2024/01/11 04:05:27;;;;;;;2.85;1.98;;;19.30;49.40;;;;;;5035856;28;20385;-68
2024/01/11 04:07:53;;;;;;;2.67;1.73;;;19.20;49.30;;;;;;5035355;28;20025;-67
2024/01/11 04:10:19;;;;;;;2.47;1.90;;;19.20;49.30;;;;;;5038813;28;20474;-67
2024/01/11 04:12:44;;;;;;;2.92;2.00;;;19.30;49.90;;;;;;5038327;28;20029;-67
2024/01/11 04:15:13;;;;;;;2.85;1.92;;;19.20;49.30;;;;;;5040693;28;20037;-67
2024/01/11 04:17:39;;;;;;;2.70;1.90;;;19.20;49.40;;;;;;5040642;28;20091;-67
2024/01/11 04:20:06;;;;;;;2.40;1.77;;;19.20;49.40;;;;;;5038270;28;20426;-67
2024/01/11 04:22:32;;;;;;;3.00;2.00;;;19.20;49.40;;;;;;5042572;28;20174;-67
2024/01/11 04:24:58;;;;;;;2.60;1.80;;;19.20;49.40;;;;;;5036759;28;20097;-67
2024/01/11 04:27:23;;;;;;;2.67;1.77;;;19.20;49.30;;;;;;5041206;28;20326;-67
2024/01/11 04:29:49;;;;;;;2.63;1.90;;;19.20;49.40;;;;;;5038169;28;20024;-67
2024/01/11 04:32:15;;;;;;;2.78;2.03;;;19.20;49.40;;;;;;5035990;28;20533;-67
2024/01/11 04:34:40;;;;;;;2.60;1.90;;;19.20;49.40;;;;;;5035042;28;20095;-64
2024/01/11 04:37:06;;;;;;;2.90;2.00;;;19.20;49.40;;;;;;5036799;28;20057;-64
2024/01/11 04:39:32;;;;;;;2.95;2.10;;;19.20;49.90;;;;;;5035525;28;20060;-65
2024/01/11 04:41:58;;;;;;;2.70;1.95;;;19.20;49.40;;;;;;5043383;28;20052;-64
2024/01/11 04:44:23;;;;;;;2.58;1.90;;;19.20;49.40;;;;;;5037900;28;20116;-65
2024/01/11 04:46:49;;;;;;;2.53;1.85;;;19.20;49.40;;;;;;5039234;28;20025;-65
2024/01/11 04:49:14;;;;;;;2.40;1.80;;;19.20;49.40;;;;;;5037487;28;20017;-65
2024/01/11 04:51:40;;;;;;;2.55;1.92;;;19.20;49.50;;;;;;5035607;28;20051;-65
2024/01/11 04:54:06;;;;;;;2.60;2.00;;;19.20;49.40;;;;;;5039224;28;20037;-64
2024/01/11 04:56:31;;;;;;;2.78;1.90;;;19.20;49.40;;;;;;5038236;28;20029;-65
2024/01/11 04:58:58;;;;;;;2.80;2.05;;;19.20;49.40;;;;;;5037457;28;20501;-65
2024/01/11 05:01:24;;;;;;;2.60;1.90;;;19.20;49.40;;;;;;5038281;28;20056;-65
2024/01/11 05:03:49;;;;;;;2.45;1.80;;;19.10;49.40;;;;;;5038451;28;20446;-65
2024/01/11 05:06:19;;;;;;;2.70;1.90;;;19.20;49.40;;;;;;5036470;28;20037;-65
2024/01/11 05:08:46;;;;;;;2.83;2.00;;;19.20;49.50;;;;;;5036739;28;20025;-65
2024/01/11 05:11:16;;;;;;;3.00;2.20;;;19.20;49.40;;;;;;5037966;28;20373;-66
2024/01/11 05:13:42;;;;;;;2.55;1.83;;;19.10;49.40;;;;;;5039334;28;20430;-65
2024/01/11 05:16:15;;;;;;;2.60;1.90;;;19.20;49.50;;;;;;5040965;28;20057;-64
2024/01/11 05:18:41;;;;;;;2.80;2.00;;;19.20;49.50;;;;;;5038330;28;20485;-65
2024/01/11 05:21:06;;;;;;;2.83;2.00;;;19.20;49.50;;;;;;5036492;28;20049;-64
2024/01/11 05:23:32;;;;;;;2.78;2.00;;;19.20;49.50;;;;;;5038337;28;20555;-64
2024/01/11 05:25:58;;;;;;;2.80;2.05;;;19.20;49.50;;;;;;5035555;28;20025;-65
2024/01/11 05:28:23;;;;;;;2.70;1.85;;;19.20;49.50;;;;;;5038428;28;20083;-64
2024/01/11 05:30:49;;;;;;;2.90;2.08;;;19.20;49.50;;;;;;5038670;28;20071;-64
2024/01/11 05:33:14;;;;;;;3.00;2.00;;;19.20;49.50;;;;;;5039797;28;20021;-67
2024/01/11 05:35:40;;;;;;;2.80;1.88;;;19.10;49.50;;;;;;5035397;28;20547;-67
2024/01/11 05:38:06;;;;;;;3.30;2.20;;;19.20;49.50;;;;;;5038411;28;20055;-67
2024/01/11 05:40:31;;;;;;;2.60;1.90;;;19.10;49.50;;;;;;5035188;28;20033;-67
2024/01/11 05:42:57;;;;;;;3.00;2.00;;;19.10;49.50;;;;;;5037693;28;20026;-65
2024/01/11 05:45:22;;;;;;;2.70;2.10;;;19.10;49.50;;;;;;5038473;28;20021;-65
2024/01/11 05:47:49;;;;;;;2.58;1.77;;;19.10;49.50;;;;;;5037944;28;20535;-66
2024/01/11 05:50:15;;;;;;;2.90;2.10;;;19.10;49.50;;;;;;5038670;28;20029;-65
2024/01/11 05:52:40;;;;;;;2.85;1.98;;;19.10;49.50;;;;;;5034907;28;20044;-65
2024/01/11 05:55:06;;;;;;;2.78;1.88;;;19.10;49.60;;;;;;5036317;28;20135;-65
2024/01/11 05:57:32;;;;;;;2.53;1.90;;;19.20;49.60;;;;;;5037457;28;20013;-65
2024/01/11 05:59:57;;;;;;;3.22;2.10;;;19.10;49.60;;;;;;5037558;28;20390;-65
2024/01/11 06:02:23;;;;;;;3.53;2.20;;;19.10;49.60;;;;;;5037164;28;20021;-66
2024/01/11 06:04:49;;;;;;;2.67;2.03;;;19.10;49.60;;;;;;5039901;28;20029;-65
2024/01/11 06:07:15;;;;;;;3.20;2.10;;;19.10;49.60;;;;;;5037126;28;20021;-66
2024/01/11 06:09:40;;;;;;;2.80;2.00;;;19.10;49.60;;;;;;5038186;28;20029;-66
2024/01/11 06:12:09;;;;;;;3.10;2.28;;;19.10;49.60;;;;;;5035750;28;20032;-65
2024/01/11 06:14:35;;;;;;;3.13;2.10;;;19.10;49.60;;;;;;5037562;28;20033;-65
2024/01/11 06:17:01;;;;;;;2.80;1.80;;;19.10;50.10;;;;;;5039091;28;20032;-65
2024/01/11 06:19:28;;;;;;;2.58;1.90;;;19.10;49.60;;;;;;5033999;28;20029;-65
2024/01/11 06:21:53;;;;;;;2.78;1.98;;;19.20;49.60;;;;;;5034015;28;20368;-65
2024/01/11 06:24:19;;;;;;;2.80;1.90;;;19.10;49.60;;;;;;5036847;28;20045;-64
2024/01/11 06:26:44;;;;;;;2.78;2.00;;;19.10;49.60;;;;;;5039215;28;20017;-64
2024/01/11 06:29:10;;;;;;;2.60;1.90;;;19.10;49.60;;;;;;5038609;28;20096;-64
2024/01/11 06:31:36;;;;;;;2.85;1.90;;;19.10;49.60;;;;;;5036304;28;20075;-64
2024/01/11 06:34:01;;;;;;;3.05;2.20;;;19.10;49.60;;;;;;5036100;28;20029;-64
2024/01/11 06:36:27;;;;;;;2.80;2.17;;;19.10;49.70;;;;;;5036516;28;20038;-65
2024/01/11 06:38:52;;;;;;;3.03;2.00;;;19.10;49.80;;;;;;5040769;28;20382;-63
2024/01/11 06:41:18;;;;;;;3.03;1.98;;;19.10;50.20;;;;;;5041077;28;20029;-64
2024/01/11 06:43:44;;;;;;;3.30;1.95;;;19.10;50.20;;;;;;5041633;28;20466;-67
2024/01/11 06:46:10;;;;;;;2.67;1.73;;;19.10;50.20;;;;;;5040673;28;20108;-68
2024/01/11 06:48:36;;;;;;;2.67;1.80;;;19.10;50.10;;;;;;5041910;28;20394;-67
2024/01/11 06:51:01;;;;;;;3.53;1.98;;;19.10;50.10;;;;;;5039932;28;20115;-66
2024/01/11 06:53:27;;;;;;;2.45;1.70;;;19.10;50.10;;;;;;5040875;28;20460;-67
2024/01/11 06:55:53;;;;;;;2.60;1.90;;;19.10;50.00;;;;;;5040756;28;20473;-67
2024/01/11 06:58:22;;;;;;;3.40;2.05;;;19.10;50.00;;;;;;5039657;28;20048;-67
2024/01/11 07:00:49;;;;;;;2.72;1.92;;;19.10;50.00;;;;;;5038543;28;20120;-67
2024/01/11 07:03:15;;;;;;;3.45;2.20;;;19.10;50.00;;;;;;5040517;28;20064;-67
2024/01/11 07:05:40;;;;;;;4.85;2.30;;;19.10;50.00;;;;;;5041104;28;20072;-67
2024/01/11 07:08:06;;;;;;;2.60;1.67;;;19.10;50.00;;;;;;5039726;28;20030;-67
2024/01/11 07:10:32;;;;;;;3.22;2.13;;;19.00;50.00;;;;;;5039824;28;20892;-67
2024/01/11 07:12:57;;;;;;;3.15;2.00;;;19.00;50.00;;;;;;5040270;28;20033;-67
2024/01/11 07:15:23;;;;;;;3.90;2.00;;;19.00;50.00;;;;;;5040873;28;20041;-67
2024/01/11 07:17:49;;;;;;;4.50;2.30;;;19.00;50.00;;;;;;5038486;28;20389;-67
2024/01/11 07:20:16;;;;;;;4.50;2.47;;;19.00;50.00;;;;;;5040153;28;20033;-67
2024/01/11 07:22:42;;;;;;;4.25;2.13;;;19.00;50.00;;;;;;5037913;28;20052;-67
2024/01/11 07:25:08;;;;;;;4.40;2.30;;;18.90;50.00;;;;;;5040587;28;20463;-67
2024/01/11 07:27:35;;;;;;;3.90;2.30;;;18.90;50.10;;;;;;5042050;28;20029;-67
2024/01/11 07:30:02;;;;;;;3.97;2.20;;;18.90;50.10;;;;;;5038475;28;20124;-67
2024/01/11 07:32:28;;;;;;;3.90;2.30;;;18.90;50.10;;;;;;5041547;28;20025;-67
2024/01/11 07:34:53;;;;;;;3.78;2.28;;;18.90;50.70;;;;;;5041041;28;20481;-65
2024/01/11 07:37:19;;;;;;;4.65;2.40;;;18.90;50.10;;;;;;5036751;28;20033;-65
2024/01/11 07:39:45;;;;;;;4.03;2.45;;;18.90;50.20;;;;;;5040546;28;20501;-65
2024/01/11 07:42:11;;;;;;;3.67;2.50;;;18.90;50.20;;;;;;5041332;28;20060;-65
2024/01/11 07:44:36;;;;;;;4.38;2.60;;;18.90;50.20;;;;;;5038830;28;20379;-65
2024/01/11 07:47:02;;;;;;;4.35;2.63;;;18.80;50.20;;;;;;5040484;28;20029;-65
2024/01/11 07:49:27;;;;;;;5.30;2.40;;;18.80;50.20;;;;;;5039026;28;20021;-66
2024/01/11 07:51:53;;;;;;;5.75;2.70;;;18.80;50.20;;;;;;5037462;28;20034;-65
2024/01/11 07:54:19;;;;;;;4.53;2.67;;;18.90;50.30;;;;;;5040130;28;20035;-64
2024/01/11 07:56:44;;;;;;;4.03;2.22;;;18.80;50.30;;;;;;5040781;28;20053;-64
2024/01/11 07:59:14;;;;;;;3.55;2.33;;;18.80;50.30;;;;;;5040714;28;20063;-64
2024/01/11 08:01:40;;;;;;;4.97;2.60;;;18.80;50.30;;;;;;5036833;28;20033;-64
2024/01/11 08:04:05;;;;;;;4.93;2.95;;;18.80;50.30;;;;;;5042870;28;20520;-64
2024/01/11 08:06:32;;;;;;;4.75;2.80;;;18.80;50.30;;;;;;5039883;28;20025;-64
2024/01/11 08:08:57;;;;;;;4.82;2.40;;;18.80;50.40;;;;;;5037337;28;20496;-63
2024/01/11 08:11:23;;;;;;;5.18;2.67;;;18.80;50.30;;;;;;5038885;28;20013;-64
2024/01/11 08:13:48;;;;;;;4.53;2.63;;;18.80;50.30;;;;;;5040394;28;20021;-64
2024/01/11 08:16:20;;;;;;;5.53;2.90;;;18.70;50.30;;;;;;5038179;28;20074;-64
2024/01/11 08:18:46;;;;;;;4.07;2.30;;;18.70;50.40;;;;;;5038886;28;20032;-63
2024/01/11 08:21:12;;;;;;;4.65;2.85;;;18.80;50.50;;;;;;5039195;28;20500;-63
2024/01/11 08:23:44;;;;;;;4.32;2.60;;;18.70;50.40;;;;;;5036644;28;20034;-63
2024/01/11 08:26:18;;;;;;;5.28;2.80;;;18.70;50.40;;;;;;5040159;28;20070;-63
2024/01/11 08:28:44;;;;;;;3.95;2.95;;;18.70;50.40;;;;;;5038442;28;20457;-64
2024/01/11 08:31:10;;;;;;;3.70;2.50;;;18.70;50.40;;;;;;5040610;28;20028;-63
2024/01/11 08:33:38;;;;;;;4.95;2.80;;;18.70;50.50;;;;;;5040073;28;20025;-64
2024/01/11 08:36:05;;;;;;;4.72;2.75;;;18.70;50.50;;;;;;5041020;28;20033;-64
2024/01/11 08:38:31;;;;;;;4.65;2.90;;;18.70;50.50;;;;;;5036443;28;20150;-64
2024/01/11 08:40:58;;;;;;;5.10;2.92;;;18.70;50.50;;;;;;5039985;28;20025;-64
2024/01/11 08:43:26;;;;;;;4.38;3.00;;;18.70;50.50;;;;;;5040023;28;20051;-65
2024/01/11 08:45:52;;;;;;;5.10;3.00;;;18.70;50.50;;;;;;5037147;28;20029;-65
2024/01/11 08:48:18;;;;;;;5.25;3.03;;;18.70;50.50;;;;;;5041368;28;20025;-65
2024/01/11 08:50:43;;;;;;;4.53;2.65;;;18.70;50.50;;;;;;5037011;28;20385;-65
2024/01/11 08:53:09;;;;;;;3.65;2.38;;;18.60;50.50;;;;;;5035875;28;20033;-65
2024/01/11 08:55:34;;;;;;;4.07;2.67;;;18.60;50.50;;;;;;5055104;28;20034;-65
2024/01/11 08:58:00;;;;;;;5.32;2.60;;;18.60;50.50;;;;;;5040017;28;20626;-65
2024/01/11 09:00:26;;;;;;;4.68;2.80;;;18.60;50.50;;;;;;5036967;28;20097;-65
2024/01/11 09:02:52;;;;;;;4.40;2.70;;;18.60;50.60;;;;;;5036969;28;20034;-65
2024/01/11 09:05:18;;;;;;;5.45;2.70;;;18.60;50.50;;;;;;5038638;28;20033;-63
2024/01/11 09:07:43;;;;;;;4.03;2.83;;;18.60;50.60;;;;;;5036136;28;20570;-64
2024/01/11 09:10:10;;;;;;;4.30;2.80;;;18.60;50.60;;;;;;5039261;28;20021;-64
2024/01/11 09:12:36;;;;;;;4.47;2.85;;;18.60;50.60;;;;;;5041012;28;20023;-64
2024/01/11 09:15:03;;;;;;;5.00;3.10;;;18.60;50.60;;;;;;5038044;28;20469;-64
2024/01/11 09:17:28;;;;;;;4.75;2.90;;;18.60;50.60;;;;;;5037671;28;20038;-63
2024/01/11 09:19:54;;;;;;;4.82;2.97;;;18.60;50.60;;;;;;5038716;28;20029;-64
2024/01/11 09:22:20;;;;;;;4.57;2.92;;;18.60;50.70;;;;;;5036193;28;20083;-65
2024/01/11 09:24:45;;;;;;;4.22;2.63;;;18.60;50.70;;;;;;5035863;28;20064;-63
2024/01/11 09:27:11;;;;;;;3.92;2.85;;;18.50;50.60;;;;;;5037595;28;20129;-64
2024/01/11 09:29:45;;;;;;;4.32;2.67;;;18.50;50.60;;;;;;5039309;28;20393;-64
2024/01/11 09:32:12;;;;;;;4.57;2.83;;;18.50;50.70;;;;;;5038451;28;20051;-64
2024/01/11 09:34:38;;;;;;;4.25;2.72;;;18.50;50.70;;;;;;5040187;28;20029;-64
2024/01/11 09:37:03;;;;;;;4.45;2.72;;;18.50;50.70;;;;;;5034609;28;20060;-64
2024/01/11 09:39:29;;;;;;;4.35;2.80;;;18.50;50.70;;;;;;5035415;28;20091;-65
2024/01/11 09:42:05;;;;;;;3.88;2.45;;;18.50;50.70;;;;;;5033557;28;20400;-65
2024/01/11 09:44:37;;;;;;;4.53;2.90;;;18.50;50.70;;;;;;5040456;28;20086;-65
2024/01/11 09:47:06;;;;;;;3.95;2.75;;;18.50;50.70;;;;;;5035230;28;20021;-65
2024/01/11 09:49:35;;;;;;;5.38;3.30;;;18.50;50.70;;;;;;5038383;28;20104;-65
2024/01/11 09:52:02;;;;;;;4.50;3.00;;;18.50;50.70;;;;;;5038216;28;20392;-66
2024/01/11 09:54:28;;;;;;;4.68;3.08;;;18.50;50.70;;;;;;5033422;28;20487;-65
2024/01/11 09:56:56;;;;;;;4.25;2.53;;;18.50;50.70;;;;;;5039112;28;20022;-65
2024/01/11 09:59:24;;;;;;;4.28;2.72;;;18.50;50.70;;;;;;5038103;28;20029;-65
2024/01/11 10:01:51;;;;;;;4.15;2.70;;;18.50;50.80;;;;;;5036573;28;20378;-66
2024/01/11 10:04:17;;;;;;;4.10;3.00;;;18.50;50.80;;;;;;5037276;28;20163;-65
2024/01/11 10:06:43;;;;;;;4.85;3.00;;;18.50;50.80;;;;;;5038410;28;20030;-65
2024/01/11 10:09:09;;;;;;;5.22;2.80;;;18.50;50.80;;;;;;5034709;28;20025;-64
2024/01/11 10:11:35;;;;;;;3.92;2.92;;;18.50;50.80;;;;;;5039363;28;20129;-64
2024/01/11 10:14:01;;;;;;;4.07;2.72;;;18.50;50.80;;;;;;5037852;28;20024;-71
2024/01/11 10:16:31;;;;;;;4.07;2.95;;;18.40;50.80;;;;;;5057005;28;20135;-70
2024/01/11 10:18:57;;;;;;;4.80;2.90;;;18.40;50.80;;;;;;5043583;28;20102;-69
2024/01/11 10:21:23;;;;;;;5.43;3.00;;;18.40;50.80;;;;;;5040236;28;20063;-69
2024/01/11 10:23:50;;;;;;;4.07;3.00;;;18.50;50.80;;;;;;5041357;28;20028;-67
2024/01/11 10:26:16;;;;;;;4.80;2.78;;;18.40;50.80;;;;;;5041609;28;20393;-67
2024/01/11 10:28:46;;;;;;;4.65;3.13;;;18.40;51.30;;;;;;5039896;28;20027;-67
2024/01/11 10:31:12;;;;;;;;;;;18.40;50.80;;;;;;5039687;28;20032;-67
2024/01/11 10:33:38;;;;;;;4.03;3.05;;;18.40;50.80;;;;;;5041884;28;20231;-67
2024/01/11 10:36:04;;;;;;;4.55;2.90;;;18.40;50.80;;;;;;5040760;28;20026;-67
2024/01/11 10:38:30;;;;;;;3.80;2.60;;;18.40;50.80;;;;;;5038125;28;20033;-67
2024/01/11 10:41:00;;;;;;;4.75;2.97;;;18.40;51.40;;;;;;5039961;28;20481;-67
2024/01/11 10:43:27;;;;;;;4.45;2.78;;;18.40;50.80;;;;;;5040929;28;20029;-68
2024/01/11 10:45:57;;;;;;;4.28;2.92;;;18.40;50.80;;;;;;5040064;28;20033;-68
2024/01/11 10:48:25;;;;;;;4.80;3.13;;;18.40;50.80;;;;;;5040864;28;20434;-69
2024/01/11 10:50:58;;;;;;;4.22;3.00;;;18.40;50.90;;;;;;5040699;28;20025;-69
2024/01/11 10:53:47;;;;;;;4.75;3.30;;;18.40;50.90;;;;;;5038375;28;20100;-70
2024/01/11 10:56:18;;;;;;;4.30;3.08;;;18.40;50.90;;;;;;5041179;28;20021;-69
2024/01/11 10:58:45;;;;;;;4.18;3.25;;;18.40;50.90;;;;;;5040444;28;20397;-70
2024/01/11 11:01:12;;;;;;;3.88;3.00;;;18.40;50.90;;;;;;5041185;28;20021;-70
2024/01/11 11:03:39;;;;;;;5.10;3.05;;;18.40;50.90;;;;;;5042437;28;20216;-71
2024/01/11 11:06:06;;;;;;;4.50;3.20;;;18.40;50.90;;;;;;5054868;28;20025;-64
2024/01/11 11:08:33;;;;;;;5.35;3.28;;;18.40;50.90;;;;;;5039112;28;20087;-64
2024/01/11 11:11:03;;;;;;;4.63;3.20;;;18.40;50.90;;;;;;5036623;28;20020;-64
2024/01/11 11:13:29;;;;;;;5.07;3.50;;;18.40;50.90;;;;;;5037663;28;20158;-65
2024/01/11 11:15:57;;;;;;;4.65;3.33;;;18.40;50.90;;;;;;5040086;28;20037;-63
2024/01/11 11:18:24;;;;;;;5.60;3.45;;;18.40;50.90;;;;;;5038610;28;20021;-63
2024/01/11 11:20:50;;;;;;;5.28;3.80;;;18.40;50.90;;;;;;5041670;28;20021;-64
2024/01/11 11:23:17;;;;;;;4.32;3.10;;;18.40;50.90;;;;;;5037246;28;20120;-63
2024/01/11 11:25:45;;;;;;;4.63;3.28;;;18.40;51.40;;;;;;5040494;28;20053;-64
2024/01/11 11:28:18;;;;;;;6.07;3.90;;;18.40;51.50;;;;;;5041139;28;20052;-65
2024/01/11 11:30:47;;;;;;;4.60;3.20;;;18.40;50.90;;;;;;5040030;28;20032;-62
2024/01/11 11:33:17;;;;;;;;;;;18.40;50.90;;;;;;5038939;28;20033;-62
2024/01/11 11:35:42;;;;;;;5.80;3.75;;;18.40;50.90;;;;;;5040584;28;19962;-62
2024/01/11 11:38:08;;;;;;;4.93;3.35;;;18.40;50.90;;;;;;5041220;28;20045;-62
2024/01/11 11:40:42;;;;;;;5.35;3.90;;;18.40;50.90;;;;;;5039455;28;20426;-64
2024/01/11 11:43:08;;;;;;;5.82;4.07;;;18.40;50.90;;;;;;5041067;28;20025;-62
2024/01/11 11:45:35;;;;;;;5.75;3.50;;;18.40;51.00;;;;;;5040378;28;20029;-64
2024/01/11 11:48:01;;;;;;;5.47;3.70;;;18.40;51.00;;;;;;5040421;28;20524;-64
2024/01/11 11:50:30;;;;;;;4.90;3.55;;;18.40;51.00;;;;;;5038746;28;20025;-63
2024/01/11 11:52:57;;;;;;;5.18;3.75;;;18.40;51.00;;;;;;5039198;28;20036;-63
2024/01/11 11:55:27;;;;;;;5.10;3.55;;;18.40;51.00;;;;;;5037275;28;20074;-63
2024/01/11 11:57:53;;;;;;;5.32;3.78;;;18.40;51.00;;;;;;5040604;28;20032;-63
2024/01/11 12:00:20;;;;;;;4.78;3.35;;;18.40;51.00;;;;;;5039470;28;20033;-65
2024/01/11 12:02:51;;;;;;;5.22;3.80;;;18.40;51.00;;;;;;5039316;28;20445;-64
2024/01/11 12:05:18;;;;;;;5.20;3.40;;;18.40;51.00;;;;;;5038333;28;20022;-63
2024/01/11 12:07:45;;;;;;;5.60;3.33;;;18.40;51.00;;;;;;5035167;28;20161;-62
2024/01/11 12:10:12;;;;;;;6.50;3.70;;;18.40;51.00;;;;;;5036249;28;20028;-61
2024/01/11 12:12:39;;;;;;;4.95;3.63;;;18.40;51.00;;;;;;5040924;28;20064;-62
2024/01/11 12:15:05;;;;;;;5.65;3.97;;;18.40;51.10;;;;;;5038552;28;20441;-65
2024/01/11 12:17:31;;;;;;;4.90;3.42;;;18.40;51.10;;;;;;5040249;28;20037;-65
2024/01/11 12:19:56;;;;;;;4.85;3.38;;;18.40;51.10;;;;;;5039719;28;20370;-62
2024/01/11 12:22:23;;;;;;;5.32;3.70;;;18.30;51.00;;;;;;5052924;28;20479;-62
2024/01/11 12:24:49;;;;;;;4.55;3.38;;;18.40;51.10;;;;;;5032459;28;20351;-65
2024/01/11 12:27:15;;;;;;;4.88;3.70;;;18.40;51.10;;;;;;5036941;28;20032;-62
2024/01/11 12:29:40;;;;;;;5.53;3.78;;;18.40;51.10;;;;;;5040166;28;20021;-63
2024/01/11 12:32:10;;;;;;;5.13;3.67;;;18.40;51.10;;;;;;5038375;28;20579;-62
2024/01/11 12:34:36;;;;;;;4.53;3.60;;;18.40;51.10;;;;;;5036703;28;20025;-64
2024/01/11 12:37:05;;;;;;;5.35;3.70;;;18.40;51.10;;;;;;5037271;28;20500;-65
2024/01/11 12:39:31;;;;;;;4.67;3.30;;;18.40;51.10;;;;;;5038665;28;20059;-64
2024/01/11 12:41:57;;;;;;;5.00;3.50;;;18.40;51.10;;;;;;5038848;28;20335;-64
2024/01/11 12:44:26;;;;;;;4.47;3.47;;;18.40;51.10;;;;;;5038561;28;20033;-68